sensor_id;sensor_type;location;lat;lon;timestamp;P1;durP1;ratioP1;P2;durP2;ratioP2
63095;SDS011;49184;55.596;37.770;2023-06-14T00:04:16;33.38;;;8.88;;
63095;SDS011;49184;55.596;37.770;2023-06-14T00:10:16;24.40;;;8.82;;
63095;SDS011;49184;55.596;37.770;2023-06-14T00:15:39;19.83;;;8.57;;
63095;SDS011;49184;55.596;37.770;2023-06-14T00:19:45;23.00;;;7.88;;
63095;SDS011;49184;55.596;37.770;2023-06-14T00:22:39;25.63;;;7.80;;
63095;SDS011;49184;55.596;37.770;2023-06-14T00:28:36;25.65;;;8.35;;
63095;SDS011;49184;55.596;37.770;2023-06-14T00:31:34;25.80;;;8.85;;
63095;SDS011;49184;55.596;37.770;2023-06-14T00:35:40;21.85;;;8.93;;
63095;SDS011;49184;55.596;37.770;2023-06-14T00:38:53;21.70;;;8.65;;
63095;SDS011;49184;55.596;37.770;2023-06-14T00:48:45;29.75;;;8.13;;
63095;SDS011;49184;55.596;37.770;2023-06-14T00:51:28;35.42;;;8.15;;
63095;SDS011;49184;55.596;37.770;2023-06-14T00:55:28;18.17;;;8.55;;
63095;SDS011;49184;55.596;37.770;2023-06-14T01:04:41;32.38;;;8.60;;
63095;SDS011;49184;55.596;37.770;2023-06-14T01:23:07;16.58;;;7.97;;
63095;SDS011;49184;55.596;37.770;2023-06-14T01:26:03;23.92;;;8.68;;
63095;SDS011;49184;55.596;37.770;2023-06-14T01:33:27;20.35;;;7.82;;
63095;SDS011;49184;55.596;37.770;2023-06-14T01:43:15;42.13;;;8.63;;
63095;SDS011;49184;55.596;37.770;2023-06-14T01:50:22;25.45;;;8.40;;
63095;SDS011;49184;55.596;37.770;2023-06-14T01:53:08;24.90;;;8.63;;
63095;SDS011;49184;55.596;37.770;2023-06-14T01:57:18;26.90;;;8.70;;
63095;SDS011;49184;55.596;37.770;2023-06-14T02:11:43;30.63;;;8.02;;
63095;SDS011;49184;55.596;37.770;2023-06-14T02:14:24;26.67;;;8.65;;
63095;SDS011;49184;55.596;37.770;2023-06-14T02:17:15;90.15;;;11.27;;
63095;SDS011;49184;55.596;37.770;2023-06-14T02:20:27;58.20;;;9.45;;
63095;SDS011;49184;55.596;37.770;2023-06-14T02:23:35;50.40;;;10.18;;
63095;SDS011;49184;55.596;37.770;2023-06-14T02:26:01;48.92;;;10.30;;
63095;SDS011;49184;55.596;37.770;2023-06-14T02:42:25;51.25;;;16.50;;
63095;SDS011;49184;55.596;37.770;2023-06-14T02:51:37;37.35;;;13.75;;
63095;SDS011;49184;55.596;37.770;2023-06-14T02:54:09;35.77;;;12.77;;
63095;SDS011;49184;55.596;37.770;2023-06-14T02:57:20;34.13;;;13.68;;
63095;SDS011;49184;55.596;37.770;2023-06-14T03:00:34;32.40;;;12.75;;
63095;SDS011;49184;55.596;37.770;2023-06-14T03:06:46;28.13;;;11.88;;
63095;SDS011;49184;55.596;37.770;2023-06-14T03:20:35;34.75;;;12.32;;
63095;SDS011;49184;55.596;37.770;2023-06-14T03:28:53;40.25;;;11.65;;
63095;SDS011;49184;55.596;37.770;2023-06-14T03:38:07;23.48;;;10.32;;
63095;SDS011;49184;55.596;37.770;2023-06-14T03:44:48;21.10;;;10.70;;
63095;SDS011;49184;55.596;37.770;2023-06-14T03:51:19;31.25;;;11.63;;
63095;SDS011;49184;55.596;37.770;2023-06-14T03:53:49;27.83;;;10.45;;
63095;SDS011;49184;55.596;37.770;2023-06-14T04:01:20;29.33;;;11.48;;
63095;SDS011;49184;55.596;37.770;2023-06-14T04:09:57;25.15;;;10.48;;
63095;SDS011;49184;55.596;37.770;2023-06-14T04:16:07;33.17;;;10.52;;
63095;SDS011;49184;55.596;37.770;2023-06-14T04:25:13;23.08;;;10.30;;
63095;SDS011;49184;55.596;37.770;2023-06-14T04:27:49;26.80;;;9.30;;
63095;SDS011;49184;55.596;37.770;2023-06-14T04:31:41;26.45;;;8.90;;
63095;SDS011;49184;55.596;37.770;2023-06-14T04:34:28;20.27;;;8.48;;
63095;SDS011;49184;55.596;37.770;2023-06-14T04:40:34;30.13;;;9.85;;
63095;SDS011;49184;55.596;37.770;2023-06-14T05:07:15;46.88;;;10.00;;
63095;SDS011;49184;55.596;37.770;2023-06-14T05:26:58;21.23;;;8.10;;
63095;SDS011;49184;55.596;37.770;2023-06-14T05:36:17;24.45;;;8.10;;
63095;SDS011;49184;55.596;37.770;2023-06-14T05:38:45;21.38;;;8.05;;
63095;SDS011;49184;55.596;37.770;2023-06-14T05:41:58;48.92;;;8.20;;
63095;SDS011;49184;55.596;37.770;2023-06-14T05:47:16;22.83;;;5.90;;
63095;SDS011;49184;55.596;37.770;2023-06-14T06:16:27;14.70;;;4.15;;
63095;SDS011;49184;55.596;37.770;2023-06-14T06:32:09;11.88;;;3.75;;
63095;SDS011;49184;55.596;37.770;2023-06-14T06:34:35;29.88;;;5.00;;
63095;SDS011;49184;55.596;37.770;2023-06-14T06:37:02;15.90;;;3.97;;
63095;SDS011;49184;55.596;37.770;2023-06-14T06:47:00;7.38;;;3.33;;
63095;SDS011;49184;55.596;37.770;2023-06-14T06:49:42;17.25;;;3.97;;
63095;SDS011;49184;55.596;37.770;2023-06-14T06:52:10;22.23;;;4.43;;
63095;SDS011;49184;55.596;37.770;2023-06-14T06:54:46;10.30;;;3.45;;
63095;SDS011;49184;55.596;37.770;2023-06-14T06:57:16;7.80;;;3.53;;
63095;SDS011;49184;55.596;37.770;2023-06-14T06:59:42;30.27;;;4.77;;
63095;SDS011;49184;55.596;37.770;2023-06-14T07:02:08;22.30;;;4.35;;
63095;SDS011;49184;55.596;37.770;2023-06-14T07:04:49;14.80;;;3.90;;
63095;SDS011;49184;55.596;37.770;2023-06-14T07:07:19;9.15;;;3.95;;
63095;SDS011;49184;55.596;37.770;2023-06-14T07:18:38;13.13;;;4.07;;
63095;SDS011;49184;55.596;37.770;2023-06-14T07:21:04;8.10;;;3.47;;
63095;SDS011;49184;55.596;37.770;2023-06-14T07:23:34;8.05;;;3.75;;
63095;SDS011;49184;55.596;37.770;2023-06-14T07:26:04;30.98;;;4.60;;
63095;SDS011;49184;55.596;37.770;2023-06-14T07:28:39;8.27;;;4.13;;
63095;SDS011;49184;55.596;37.770;2023-06-14T07:31:07;9.90;;;3.78;;
63095;SDS011;49184;55.596;37.770;2023-06-14T07:33:37;10.55;;;4.15;;
63095;SDS011;49184;55.596;37.770;2023-06-14T07:36:03;20.88;;;4.72;;
63095;SDS011;49184;55.596;37.770;2023-06-14T07:38:50;10.20;;;3.60;;
63095;SDS011;49184;55.596;37.770;2023-06-14T07:41:16;11.75;;;3.85;;
63095;SDS011;49184;55.596;37.770;2023-06-14T07:44:13;9.68;;;3.85;;
63095;SDS011;49184;55.596;37.770;2023-06-14T07:46:39;6.03;;;3.63;;
63095;SDS011;49184;55.596;37.770;2023-06-14T07:49:05;15.80;;;4.05;;
63095;SDS011;49184;55.596;37.770;2023-06-14T07:51:32;19.52;;;5.00;;
63095;SDS011;49184;55.596;37.770;2023-06-14T07:54:01;21.38;;;5.13;;
63095;SDS011;49184;55.596;37.770;2023-06-14T07:56:28;14.68;;;4.80;;
63095;SDS011;49184;55.596;37.770;2023-06-14T07:59:01;18.08;;;4.40;;
63095;SDS011;49184;55.596;37.770;2023-06-14T08:01:27;9.65;;;4.07;;
63095;SDS011;49184;55.596;37.770;2023-06-14T08:03:55;19.30;;;4.90;;
63095;SDS011;49184;55.596;37.770;2023-06-14T08:10:20;13.70;;;4.32;;
63095;SDS011;49184;55.596;37.770;2023-06-14T08:16:18;29.67;;;4.40;;
63095;SDS011;49184;55.596;37.770;2023-06-14T08:21:35;21.48;;;4.75;;
63095;SDS011;49184;55.596;37.770;2023-06-14T08:24:02;38.50;;;4.80;;
63095;SDS011;49184;55.596;37.770;2023-06-14T08:26:29;23.67;;;4.63;;
63095;SDS011;49184;55.596;37.770;2023-06-14T08:28:57;12.18;;;3.97;;
63095;SDS011;49184;55.596;37.770;2023-06-14T08:31:28;27.73;;;5.22;;
63095;SDS011;49184;55.596;37.770;2023-06-14T08:33:54;16.50;;;4.50;;
63095;SDS011;49184;55.596;37.770;2023-06-14T08:36:24;18.40;;;5.32;;
63095;SDS011;49184;55.596;37.770;2023-06-14T08:38:59;40.95;;;5.03;;
63095;SDS011;49184;55.596;37.770;2023-06-14T08:41:25;34.10;;;4.70;;
63095;SDS011;49184;55.596;37.770;2023-06-14T08:44:20;11.32;;;4.35;;
63095;SDS011;49184;55.596;37.770;2023-06-14T08:46:47;18.17;;;5.60;;
63095;SDS011;49184;55.596;37.770;2023-06-14T08:49:13;11.80;;;4.45;;
63095;SDS011;49184;55.596;37.770;2023-06-14T08:58:15;14.73;;;5.10;;
63095;SDS011;49184;55.596;37.770;2023-06-14T09:00:42;13.30;;;4.95;;
63095;SDS011;49184;55.596;37.770;2023-06-14T09:03:28;21.27;;;4.93;;
63095;SDS011;49184;55.596;37.770;2023-06-14T09:08:44;12.77;;;4.30;;
63095;SDS011;49184;55.596;37.770;2023-06-14T09:14:07;24.40;;;4.50;;
63095;SDS011;49184;55.596;37.770;2023-06-14T09:19:55;14.10;;;4.47;;
63095;SDS011;49184;55.596;37.770;2023-06-14T09:31:48;23.38;;;4.72;;
63095;SDS011;49184;55.596;37.770;2023-06-14T09:34:15;9.63;;;4.07;;
63095;SDS011;49184;55.596;37.770;2023-06-14T09:36:43;24.95;;;5.00;;
63095;SDS011;49184;55.596;37.770;2023-06-14T09:42:01;19.98;;;5.45;;
63095;SDS011;49184;55.596;37.770;2023-06-14T09:44:44;16.48;;;5.18;;
63095;SDS011;49184;55.596;37.770;2023-06-14T09:47:29;10.80;;;4.50;;
63095;SDS011;49184;55.596;37.770;2023-06-14T09:49:55;12.55;;;5.00;;
63095;SDS011;49184;55.596;37.770;2023-06-14T09:52:43;17.35;;;5.30;;
63095;SDS011;49184;55.596;37.770;2023-06-14T09:58:06;8.10;;;4.47;;
63095;SDS011;49184;55.596;37.770;2023-06-14T10:00:49;24.20;;;4.75;;
63095;SDS011;49184;55.596;37.770;2023-06-14T10:03:20;11.10;;;4.18;;
63095;SDS011;49184;55.596;37.770;2023-06-14T10:06:08;11.68;;;4.28;;
63095;SDS011;49184;55.596;37.770;2023-06-14T10:08:34;19.58;;;4.95;;
63095;SDS011;49184;55.596;37.770;2023-06-14T10:11:05;21.73;;;4.82;;
63095;SDS011;49184;55.596;37.770;2023-06-14T10:13:58;16.15;;;4.63;;
63095;SDS011;49184;55.596;37.770;2023-06-14T10:22:42;33.03;;;5.63;;
63095;SDS011;49184;55.596;37.770;2023-06-14T10:26:03;10.43;;;4.90;;
63095;SDS011;49184;55.596;37.770;2023-06-14T10:28:39;12.32;;;4.57;;
63095;SDS011;49184;55.596;37.770;2023-06-14T10:34:33;16.52;;;5.00;;
63095;SDS011;49184;55.596;37.770;2023-06-14T10:37:03;14.55;;;4.90;;
63095;SDS011;49184;55.596;37.770;2023-06-14T10:43:23;12.57;;;5.55;;
63095;SDS011;49184;55.596;37.770;2023-06-14T10:46:32;17.08;;;4.85;;
63095;SDS011;49184;55.596;37.770;2023-06-14T10:48:52;22.60;;;5.55;;
63095;SDS011;49184;55.596;37.770;2023-06-14T10:57:38;18.10;;;5.70;;
63095;SDS011;49184;55.596;37.770;2023-06-14T11:00:06;12.02;;;5.25;;
63095;SDS011;49184;55.596;37.770;2023-06-14T11:06:10;11.88;;;4.65;;
63095;SDS011;49184;55.596;37.770;2023-06-14T11:08:40;19.98;;;4.30;;
63095;SDS011;49184;55.596;37.770;2023-06-14T11:11:32;8.75;;;4.22;;
63095;SDS011;49184;55.596;37.770;2023-06-14T11:14:02;20.77;;;5.35;;
63095;SDS011;49184;55.596;37.770;2023-06-14T11:16:30;7.55;;;4.18;;
63095;SDS011;49184;55.596;37.770;2023-06-14T11:19:01;27.55;;;5.63;;
63095;SDS011;49184;55.596;37.770;2023-06-14T11:21:28;11.65;;;4.75;;
63095;SDS011;49184;55.596;37.770;2023-06-14T11:24:22;41.15;;;5.45;;
63095;SDS011;49184;55.596;37.770;2023-06-14T11:29:48;13.75;;;4.50;;
63095;SDS011;49184;55.596;37.770;2023-06-14T11:40:42;10.55;;;4.55;;
63095;SDS011;49184;55.596;37.770;2023-06-14T11:43:08;29.58;;;5.55;;
63095;SDS011;49184;55.596;37.770;2023-06-14T11:45:35;17.20;;;5.10;;
63095;SDS011;49184;55.596;37.770;2023-06-14T11:48:05;25.65;;;4.63;;
63095;SDS011;49184;55.596;37.770;2023-06-14T11:53:27;17.52;;;4.85;;
63095;SDS011;49184;55.596;37.770;2023-06-14T11:55:53;14.35;;;5.03;;
63095;SDS011;49184;55.596;37.770;2023-06-14T11:58:21;12.80;;;4.50;;
63095;SDS011;49184;55.596;37.770;2023-06-14T12:00:51;26.23;;;5.55;;
63095;SDS011;49184;55.596;37.770;2023-06-14T12:03:22;32.17;;;6.35;;
63095;SDS011;49184;55.596;37.770;2023-06-14T12:09:32;14.35;;;5.20;;
63095;SDS011;49184;55.596;37.770;2023-06-14T12:12:01;30.00;;;5.38;;
63095;SDS011;49184;55.596;37.770;2023-06-14T12:15:21;24.30;;;5.03;;
63095;SDS011;49184;55.596;37.770;2023-06-14T12:17:47;16.15;;;4.80;;
63095;SDS011;49184;55.596;37.770;2023-06-14T13:11:12;10.45;;;5.20;;
63095;SDS011;49184;55.596;37.770;2023-06-14T13:15:04;22.83;;;5.38;;
63095;SDS011;49184;55.596;37.770;2023-06-14T13:17:36;15.88;;;5.20;;
63095;SDS011;49184;55.596;37.770;2023-06-14T13:24:12;27.27;;;6.22;;
63095;SDS011;49184;55.596;37.770;2023-06-14T13:26:50;18.13;;;4.90;;
63095;SDS011;49184;55.596;37.770;2023-06-14T13:29:20;15.80;;;5.15;;
63095;SDS011;49184;55.596;37.770;2023-06-14T13:53:10;15.23;;;4.60;;
63095;SDS011;49184;55.596;37.770;2023-06-14T13:55:36;12.30;;;5.18;;
63095;SDS011;49184;55.596;37.770;2023-06-14T13:58:14;19.25;;;5.40;;
63095;SDS011;49184;55.596;37.770;2023-06-14T14:03:49;20.58;;;5.25;;
63095;SDS011;49184;55.596;37.770;2023-06-14T14:06:35;10.57;;;4.78;;
63095;SDS011;49184;55.596;37.770;2023-06-14T14:09:01;18.35;;;4.93;;
63095;SDS011;49184;55.596;37.770;2023-06-14T14:19:40;11.60;;;4.30;;
63095;SDS011;49184;55.596;37.770;2023-06-14T14:34:16;16.80;;;4.38;;
63095;SDS011;49184;55.596;37.770;2023-06-14T14:41:05;26.77;;;5.65;;
63095;SDS011;49184;55.596;37.770;2023-06-14T14:43:31;11.45;;;4.30;;
63095;SDS011;49184;55.596;37.770;2023-06-14T14:46:07;14.95;;;4.70;;
63095;SDS011;49184;55.596;37.770;2023-06-14T14:59:42;11.38;;;5.28;;
63095;SDS011;49184;55.596;37.770;2023-06-14T15:02:09;23.10;;;4.88;;
63095;SDS011;49184;55.596;37.770;2023-06-14T15:07:33;18.48;;;4.45;;
63095;SDS011;49184;55.596;37.770;2023-06-14T15:16:38;14.25;;;4.38;;
63095;SDS011;49184;55.596;37.770;2023-06-14T15:19:04;17.80;;;4.80;;
63095;SDS011;49184;55.596;37.770;2023-06-14T15:21:32;17.52;;;5.00;;
63095;SDS011;49184;55.596;37.770;2023-06-14T15:45:30;13.02;;;4.90;;
63095;SDS011;49184;55.596;37.770;2023-06-14T15:48:21;21.08;;;7.40;;
63095;SDS011;49184;55.596;37.770;2023-06-14T15:50:54;15.35;;;4.35;;
63095;SDS011;49184;55.596;37.770;2023-06-14T15:53:38;19.73;;;4.88;;
63095;SDS011;49184;55.596;37.770;2023-06-14T15:59:49;14.90;;;4.78;;
63095;SDS011;49184;55.596;37.770;2023-06-14T16:08:40;18.08;;;5.00;;
63095;SDS011;49184;55.596;37.770;2023-06-14T16:11:07;17.95;;;5.28;;
63095;SDS011;49184;55.596;37.770;2023-06-14T16:13:33;17.23;;;4.72;;
63095;SDS011;49184;55.596;37.770;2023-06-14T16:16:45;28.75;;;6.22;;
63095;SDS011;49184;55.596;37.770;2023-06-14T16:19:45;28.17;;;6.53;;
63095;SDS011;49184;55.596;37.770;2023-06-14T16:32:01;37.33;;;11.13;;
63095;SDS011;49184;55.596;37.770;2023-06-14T16:34:53;18.02;;;5.85;;
63095;SDS011;49184;55.596;37.770;2023-06-14T16:38:31;8.02;;;4.13;;
63095;SDS011;49184;55.596;37.770;2023-06-14T16:41:00;15.40;;;4.50;;
63095;SDS011;49184;55.596;37.770;2023-06-14T16:43:26;6.35;;;3.90;;
63095;SDS011;49184;55.596;37.770;2023-06-14T16:45:56;18.35;;;4.70;;
63095;SDS011;49184;55.596;37.770;2023-06-14T16:54:19;26.63;;;7.00;;
63095;SDS011;49184;55.596;37.770;2023-06-14T16:57:33;41.97;;;6.20;;
63095;SDS011;49184;55.596;37.770;2023-06-14T17:03:22;12.88;;;5.10;;
63095;SDS011;49184;55.596;37.770;2023-06-14T17:06:13;53.75;;;5.38;;
63095;SDS011;49184;55.596;37.770;2023-06-14T17:13:13;32.45;;;5.72;;
63095;SDS011;49184;55.596;37.770;2023-06-14T17:15:39;24.98;;;5.63;;
63095;SDS011;49184;55.596;37.770;2023-06-14T17:18:07;52.55;;;7.13;;
63095;SDS011;49184;55.596;37.770;2023-06-14T17:23:28;35.83;;;9.98;;
63095;SDS011;49184;55.596;37.770;2023-06-14T17:25:54;47.75;;;8.43;;
63095;SDS011;49184;55.596;37.770;2023-06-14T17:28:21;19.30;;;7.75;;
63095;SDS011;49184;55.596;37.770;2023-06-14T17:37:24;23.25;;;6.03;;
63095;SDS011;49184;55.596;37.770;2023-06-14T17:39:54;19.83;;;6.05;;
63095;SDS011;49184;55.596;37.770;2023-06-14T17:42:20;30.80;;;5.63;;
63095;SDS011;49184;55.596;37.770;2023-06-14T17:44:58;16.60;;;4.93;;
63095;SDS011;49184;55.596;37.770;2023-06-14T17:47:25;22.35;;;5.57;;
63095;SDS011;49184;55.596;37.770;2023-06-14T17:52:48;17.17;;;7.50;;
63095;SDS011;49184;55.596;37.770;2023-06-14T17:55:51;32.28;;;8.10;;
63095;SDS011;49184;55.596;37.770;2023-06-14T17:58:17;20.17;;;6.57;;
63095;SDS011;49184;55.596;37.770;2023-06-14T18:07:02;25.30;;;6.03;;
63095;SDS011;49184;55.596;37.770;2023-06-14T18:09:50;16.35;;;6.65;;
63095;SDS011;49184;55.596;37.770;2023-06-14T18:12:16;19.27;;;5.43;;
63095;SDS011;49184;55.596;37.770;2023-06-14T18:14:42;16.97;;;5.43;;
63095;SDS011;49184;55.596;37.770;2023-06-14T18:17:08;27.10;;;6.47;;
63095;SDS011;49184;55.596;37.770;2023-06-14T18:19:37;15.43;;;5.50;;
63095;SDS011;49184;55.596;37.770;2023-06-14T18:22:06;19.35;;;5.57;;
63095;SDS011;49184;55.596;37.770;2023-06-14T18:24:32;39.03;;;6.17;;
63095;SDS011;49184;55.596;37.770;2023-06-14T18:27:07;27.92;;;5.95;;
63095;SDS011;49184;55.596;37.770;2023-06-14T18:35:25;17.73;;;5.60;;
63095;SDS011;49184;55.596;37.770;2023-06-14T18:41:10;10.93;;;4.82;;
63095;SDS011;49184;55.596;37.770;2023-06-14T18:43:36;16.77;;;4.47;;
63095;SDS011;49184;55.596;37.770;2023-06-14T18:46:04;11.33;;;4.60;;
63095;SDS011;49184;55.596;37.770;2023-06-14T18:48:30;12.57;;;4.43;;
63095;SDS011;49184;55.596;37.770;2023-06-14T18:50:57;10.90;;;5.18;;
63095;SDS011;49184;55.596;37.770;2023-06-14T18:53:23;21.57;;;5.30;;
63095;SDS011;49184;55.596;37.770;2023-06-14T18:55:52;21.48;;;4.75;;
63095;SDS011;49184;55.596;37.770;2023-06-14T18:58:18;134.80;;;9.27;;
63095;SDS011;49184;55.596;37.770;2023-06-14T19:00:45;38.40;;;6.43;;
63095;SDS011;49184;55.596;37.770;2023-06-14T19:03:12;23.42;;;6.07;;
63095;SDS011;49184;55.596;37.770;2023-06-14T19:05:38;87.65;;;8.55;;
63095;SDS011;49184;55.596;37.770;2023-06-14T19:08:04;31.33;;;6.23;;
63095;SDS011;49184;55.596;37.770;2023-06-14T19:12:57;19.45;;;10.13;;
63095;SDS011;49184;55.596;37.770;2023-06-14T19:15:23;33.25;;;11.45;;
63095;SDS011;49184;55.596;37.770;2023-06-14T19:17:59;21.45;;;10.32;;
63095;SDS011;49184;55.596;37.770;2023-06-14T19:22:52;34.83;;;9.13;;
63095;SDS011;49184;55.596;37.770;2023-06-14T19:25:19;26.98;;;8.82;;
63095;SDS011;49184;55.596;37.770;2023-06-14T19:27:46;31.75;;;11.07;;
63095;SDS011;49184;55.596;37.770;2023-06-14T19:30:12;20.95;;;8.10;;
63095;SDS011;49184;55.596;37.770;2023-06-14T19:32:39;40.67;;;8.32;;
63095;SDS011;49184;55.596;37.770;2023-06-14T19:35:09;67.18;;;7.93;;
63095;SDS011;49184;55.596;37.770;2023-06-14T19:37:38;64.90;;;8.00;;
63095;SDS011;49184;55.596;37.770;2023-06-14T19:42:31;73.63;;;9.35;;
63095;SDS011;49184;55.596;37.770;2023-06-14T19:47:52;53.17;;;7.82;;
63095;SDS011;49184;55.596;37.770;2023-06-14T19:53:17;51.08;;;8.25;;
63095;SDS011;49184;55.596;37.770;2023-06-14T19:55:44;25.80;;;6.63;;
63095;SDS011;49184;55.596;37.770;2023-06-14T19:58:20;30.00;;;6.80;;
63095;SDS011;49184;55.596;37.770;2023-06-14T20:00:46;24.10;;;7.28;;
63095;SDS011;49184;55.596;37.770;2023-06-14T20:03:12;16.33;;;7.30;;
63095;SDS011;49184;55.596;37.770;2023-06-14T20:05:38;27.98;;;7.68;;
63095;SDS011;49184;55.596;37.770;2023-06-14T20:08:04;18.07;;;6.53;;
63095;SDS011;49184;55.596;37.770;2023-06-14T20:10:38;14.50;;;5.90;;
63095;SDS011;49184;55.596;37.770;2023-06-14T20:13:04;20.02;;;5.30;;
63095;SDS011;49184;55.596;37.770;2023-06-14T20:15:31;17.95;;;6.00;;
63095;SDS011;49184;55.596;37.770;2023-06-14T20:17:56;23.70;;;6.50;;
63095;SDS011;49184;55.596;37.770;2023-06-14T20:20:22;26.50;;;5.72;;
63095;SDS011;49184;55.596;37.770;2023-06-14T20:22:48;22.45;;;6.53;;
63095;SDS011;49184;55.596;37.770;2023-06-14T20:25:14;11.67;;;5.77;;
63095;SDS011;49184;55.596;37.770;2023-06-14T20:27:40;21.03;;;5.77;;
63095;SDS011;49184;55.596;37.770;2023-06-14T20:30:06;21.17;;;5.83;;
63095;SDS011;49184;55.596;37.770;2023-06-14T20:32:32;24.40;;;5.65;;
63095;SDS011;49184;55.596;37.770;2023-06-14T20:34:58;22.60;;;6.50;;
63095;SDS011;49184;55.596;37.770;2023-06-14T20:37:24;16.70;;;6.37;;
63095;SDS011;49184;55.596;37.770;2023-06-14T20:43:58;18.17;;;5.60;;
63095;SDS011;49184;55.596;37.770;2023-06-14T20:46:39;19.95;;;5.43;;
63095;SDS011;49184;55.596;37.770;2023-06-14T20:49:08;20.50;;;6.00;;
63095;SDS011;49184;55.596;37.770;2023-06-14T20:52:50;22.13;;;5.70;;
63095;SDS011;49184;55.596;37.770;2023-06-14T20:55:16;31.40;;;5.47;;
63095;SDS011;49184;55.596;37.770;2023-06-14T20:57:52;27.17;;;5.68;;
63095;SDS011;49184;55.596;37.770;2023-06-14T21:00:26;17.35;;;5.72;;
63095;SDS011;49184;55.596;37.770;2023-06-14T21:09:38;16.35;;;5.60;;
63095;SDS011;49184;55.596;37.770;2023-06-14T21:12:55;13.27;;;5.63;;
63095;SDS011;49184;55.596;37.770;2023-06-14T21:25:08;34.17;;;6.20;;
63095;SDS011;49184;55.596;37.770;2023-06-14T21:44:29;26.10;;;7.38;;
63095;SDS011;49184;55.596;37.770;2023-06-14T21:46:55;35.13;;;8.48;;
63095;SDS011;49184;55.596;37.770;2023-06-14T21:49:34;29.23;;;8.17;;
63095;SDS011;49184;55.596;37.770;2023-06-14T21:52:03;27.23;;;7.65;;
63095;SDS011;49184;55.596;37.770;2023-06-14T21:54:45;38.90;;;8.70;;
63095;SDS011;49184;55.596;37.770;2023-06-14T22:01:31;36.83;;;7.57;;
63095;SDS011;49184;55.596;37.770;2023-06-14T22:04:08;29.70;;;8.60;;
63095;SDS011;49184;55.596;37.770;2023-06-14T22:06:36;27.20;;;8.07;;
63095;SDS011;49184;55.596;37.770;2023-06-14T22:09:02;28.30;;;8.77;;
63095;SDS011;49184;55.596;37.770;2023-06-14T22:11:31;32.15;;;8.93;;
63095;SDS011;49184;55.596;37.770;2023-06-14T22:14:00;29.67;;;9.35;;
63095;SDS011;49184;55.596;37.770;2023-06-14T22:16:26;31.17;;;8.73;;
63095;SDS011;49184;55.596;37.770;2023-06-14T22:18:53;57.83;;;9.23;;
63095;SDS011;49184;55.596;37.770;2023-06-14T22:21:22;39.78;;;9.80;;
63095;SDS011;49184;55.596;37.770;2023-06-14T22:23:49;36.20;;;8.55;;
63095;SDS011;49184;55.596;37.770;2023-06-14T22:26:15;29.80;;;8.47;;
63095;SDS011;49184;55.596;37.770;2023-06-14T22:28:43;29.00;;;8.93;;
63095;SDS011;49184;55.596;37.770;2023-06-14T22:31:10;19.27;;;8.15;;
63095;SDS011;49184;55.596;37.770;2023-06-14T22:33:40;35.85;;;10.38;;
63095;SDS011;49184;55.596;37.770;2023-06-14T22:36:09;24.55;;;8.00;;
63095;SDS011;49184;55.596;37.770;2023-06-14T22:38:37;21.33;;;7.97;;
63095;SDS011;49184;55.596;37.770;2023-06-14T22:41:05;30.75;;;7.60;;
63095;SDS011;49184;55.596;37.770;2023-06-14T22:43:36;17.88;;;6.93;;
63095;SDS011;49184;55.596;37.770;2023-06-14T22:46:07;18.90;;;6.85;;
63095;SDS011;49184;55.596;37.770;2023-06-14T22:48:48;18.35;;;7.10;;
63095;SDS011;49184;55.596;37.770;2023-06-14T22:51:19;16.48;;;6.18;;
63095;SDS011;49184;55.596;37.770;2023-06-14T22:53:46;29.55;;;7.05;;
63095;SDS011;49184;55.596;37.770;2023-06-14T22:56:13;23.98;;;7.05;;
63095;SDS011;49184;55.596;37.770;2023-06-14T22:58:41;24.33;;;6.22;;
63095;SDS011;49184;55.596;37.770;2023-06-14T23:01:09;18.13;;;6.47;;
63095;SDS011;49184;55.596;37.770;2023-06-14T23:03:44;19.95;;;5.97;;
63095;SDS011;49184;55.596;37.770;2023-06-14T23:06:12;22.58;;;6.43;;
63095;SDS011;49184;55.596;37.770;2023-06-14T23:08:42;22.55;;;6.28;;
63095;SDS011;49184;55.596;37.770;2023-06-14T23:11:10;20.48;;;6.57;;
63095;SDS011;49184;55.596;37.770;2023-06-14T23:13:43;14.25;;;6.00;;
63095;SDS011;49184;55.596;37.770;2023-06-14T23:16:17;20.17;;;6.13;;
63095;SDS011;49184;55.596;37.770;2023-06-14T23:18:45;13.98;;;5.47;;
63095;SDS011;49184;55.596;37.770;2023-06-14T23:21:14;12.50;;;5.72;;
63095;SDS011;49184;55.596;37.770;2023-06-14T23:23:44;20.77;;;6.07;;
63095;SDS011;49184;55.596;37.770;2023-06-14T23:26:15;14.80;;;5.50;;
63095;SDS011;49184;55.596;37.770;2023-06-14T23:28:43;17.65;;;5.93;;
63095;SDS011;49184;55.596;37.770;2023-06-14T23:31:11;15.68;;;5.30;;
63095;SDS011;49184;55.596;37.770;2023-06-14T23:33:38;15.98;;;5.72;;
63095;SDS011;49184;55.596;37.770;2023-06-14T23:36:06;13.20;;;5.75;;
63095;SDS011;49184;55.596;37.770;2023-06-14T23:38:34;15.57;;;5.10;;
63095;SDS011;49184;55.596;37.770;2023-06-14T23:41:08;16.20;;;6.13;;
63095;SDS011;49184;55.596;37.770;2023-06-14T23:43:35;11.05;;;5.75;;
63095;SDS011;49184;55.596;37.770;2023-06-14T23:46:07;10.65;;;4.95;;
63095;SDS011;49184;55.596;37.770;2023-06-14T23:48:34;30.75;;;6.22;;
63095;SDS011;49184;55.596;37.770;2023-06-14T23:51:01;21.27;;;5.75;;
63095;SDS011;49184;55.596;37.770;2023-06-14T23:53:27;20.77;;;5.72;;
63095;SDS011;49184;55.596;37.770;2023-06-14T23:55:53;18.30;;;5.60;;
63095;SDS011;49184;55.596;37.770;2023-06-14T23:58:22;32.85;;;6.75;;
